sensor_id;sensor_type;location;lat;lon;timestamp;temperature;humidity
32097;DHT22;18610;49.916;8.284;2024-03-23T00:52:49;9.10;99.90
32097;DHT22;18610;49.916;8.284;2024-03-23T00:55:14;9.20;99.90
32097;DHT22;18610;49.916;8.284;2024-03-23T00:57:41;9.20;99.90
32097;DHT22;18610;49.916;8.284;2024-03-23T01:00:07;9.30;99.90
32097;DHT22;18610;49.916;8.284;2024-03-23T01:02:35;9.30;99.90
32097;DHT22;18610;49.916;8.284;2024-03-23T01:05:01;9.40;99.90
32097;DHT22;18610;49.916;8.284;2024-03-23T01:07:28;9.50;99.90
32097;DHT22;18610;49.916;8.284;2024-03-23T01:09:55;9.60;99.90
32097;DHT22;18610;49.916;8.284;2024-03-23T01:12:21;9.60;99.90
32097;DHT22;18610;49.916;8.284;2024-03-23T01:14:48;9.70;99.90
32097;DHT22;18610;49.916;8.284;2024-03-23T01:17:14;9.80;99.90
32097;DHT22;18610;49.916;8.284;2024-03-23T01:19:41;9.80;99.90
32097;DHT22;18610;49.916;8.284;2024-03-23T01:22:07;9.80;99.90
32097;DHT22;18610;49.916;8.284;2024-03-23T01:24:35;9.90;99.90
32097;DHT22;18610;49.916;8.284;2024-03-23T01:27:02;10.00;99.90
32097;DHT22;18610;49.916;8.284;2024-03-23T01:29:29;10.00;99.90
32097;DHT22;18610;49.916;8.284;2024-03-23T01:31:54;10.00;99.90
32097;DHT22;18610;49.916;8.284;2024-03-23T01:34:21;10.10;99.90
32097;DHT22;18610;49.916;8.284;2024-03-23T01:36:47;10.10;99.90
32097;DHT22;18610;49.916;8.284;2024-03-23T01:39:14;10.10;99.90
32097;DHT22;18610;49.916;8.284;2024-03-23T01:41:39;10.10;99.90
32097;DHT22;18610;49.916;8.284;2024-03-23T01:44:09;10.10;99.90
32097;DHT22;18610;49.916;8.284;2024-03-23T01:46:36;10.10;99.90
32097;DHT22;18610;49.916;8.284;2024-03-23T01:49:04;10.10;99.90
32097;DHT22;18610;49.916;8.284;2024-03-23T01:51:30;10.10;99.90
32097;DHT22;18610;49.916;8.284;2024-03-23T01:53:58;10.00;99.90
32097;DHT22;18610;49.916;8.284;2024-03-23T01:56:26;10.00;99.90
32097;DHT22;18610;49.916;8.284;2024-03-23T01:58:53;10.00;99.90
32097;DHT22;18610;49.916;8.284;2024-03-23T02:01:20;10.00;99.90
32097;DHT22;18610;49.916;8.284;2024-03-23T02:03:46;10.00;99.90
32097;DHT22;18610;49.916;8.284;2024-03-23T02:06:12;9.90;99.90
32097;DHT22;18610;49.916;8.284;2024-03-23T02:08:39;9.90;99.90
32097;DHT22;18610;49.916;8.284;2024-03-23T02:11:05;9.90;99.90
32097;DHT22;18610;49.916;8.284;2024-03-23T02:13:32;9.90;99.90
32097;DHT22;18610;49.916;8.284;2024-03-23T02:15:58;9.90;99.90
32097;DHT22;18610;49.916;8.284;2024-03-23T02:18:26;9.90;99.90
32097;DHT22;18610;49.916;8.284;2024-03-23T02:20:51;9.90;99.90
32097;DHT22;18610;49.916;8.284;2024-03-23T02:23:19;9.90;99.90
32097;DHT22;18610;49.916;8.284;2024-03-23T02:25:45;9.90;99.90
32097;DHT22;18610;49.916;8.284;2024-03-23T02:28:12;9.90;99.90
32097;DHT22;18610;49.916;8.284;2024-03-23T02:30:38;9.90;99.90
32097;DHT22;18610;49.916;8.284;2024-03-23T02:33:05;9.90;99.90
32097;DHT22;18610;49.916;8.284;2024-03-23T02:35:30;9.90;99.90
32097;DHT22;18610;49.916;8.284;2024-03-23T02:37:57;9.90;99.90
32097;DHT22;18610;49.916;8.284;2024-03-23T02:40:24;9.90;99.90
32097;DHT22;18610;49.916;8.284;2024-03-23T02:42:51;9.80;99.90
32097;DHT22;18610;49.916;8.284;2024-03-23T02:45:17;9.80;99.90
32097;DHT22;18610;49.916;8.284;2024-03-23T02:47:44;9.70;99.90
32097;DHT22;18610;49.916;8.284;2024-03-23T02:50:10;9.70;99.90
32097;DHT22;18610;49.916;8.284;2024-03-23T02:52:36;9.70;99.90
32097;DHT22;18610;49.916;8.284;2024-03-23T02:55:03;9.70;99.90
32097;DHT22;18610;49.916;8.284;2024-03-23T02:57:31;9.70;99.90
32097;DHT22;18610;49.916;8.284;2024-03-23T02:59:57;9.70;99.90
32097;DHT22;18610;49.916;8.284;2024-03-23T03:02:23;9.70;99.90
32097;DHT22;18610;49.916;8.284;2024-03-23T03:04:49;9.60;99.90
32097;DHT22;18610;49.916;8.284;2024-03-23T03:07:16;9.60;99.90
32097;DHT22;18610;49.916;8.284;2024-03-23T03:09:41;9.60;99.90
32097;DHT22;18610;49.916;8.284;2024-03-23T03:12:08;9.60;99.90
32097;DHT22;18610;49.916;8.284;2024-03-23T03:14:35;9.60;99.90
32097;DHT22;18610;49.916;8.284;2024-03-23T03:17:03;9.60;99.90
32097;DHT22;18610;49.916;8.284;2024-03-23T03:19:29;9.60;99.90
32097;DHT22;18610;49.916;8.284;2024-03-23T03:21:56;9.50;99.90
32097;DHT22;18610;49.916;8.284;2024-03-23T03:24:22;9.50;99.90
32097;DHT22;18610;49.916;8.284;2024-03-23T03:26:48;9.50;99.90
32097;DHT22;18610;49.916;8.284;2024-03-23T03:29:15;9.50;99.90
32097;DHT22;18610;49.916;8.284;2024-03-23T03:31:43;9.60;99.90
32097;DHT22;18610;49.916;8.284;2024-03-23T03:34:09;9.50;99.90
32097;DHT22;18610;49.916;8.284;2024-03-23T03:36:36;9.50;99.90
32097;DHT22;18610;49.916;8.284;2024-03-23T03:39:02;9.50;99.90
32097;DHT22;18610;49.916;8.284;2024-03-23T03:41:30;9.60;99.90
32097;DHT22;18610;49.916;8.284;2024-03-23T03:43:56;9.60;99.90
32097;DHT22;18610;49.916;8.284;2024-03-23T03:46:26;9.60;99.90
32097;DHT22;18610;49.916;8.284;2024-03-23T03:48:54;9.60;99.90
32097;DHT22;18610;49.916;8.284;2024-03-23T03:51:20;9.60;99.90
32097;DHT22;18610;49.916;8.284;2024-03-23T03:53:46;9.60;99.90
32097;DHT22;18610;49.916;8.284;2024-03-23T03:56:13;9.70;99.90
32097;DHT22;18610;49.916;8.284;2024-03-23T03:58:38;9.70;99.90
32097;DHT22;18610;49.916;8.284;2024-03-23T04:01:05;9.70;99.90
32097;DHT22;18610;49.916;8.284;2024-03-23T04:03:31;9.70;99.90
32097;DHT22;18610;49.916;8.284;2024-03-23T04:05:59;9.80;99.90
32097;DHT22;18610;49.916;8.284;2024-03-23T04:08:25;9.80;99.90
32097;DHT22;18610;49.916;8.284;2024-03-23T04:10:51;9.80;99.90
32097;DHT22;18610;49.916;8.284;2024-03-23T04:13:17;9.80;99.90
32097;DHT22;18610;49.916;8.284;2024-03-23T04:15:44;9.70;99.90
32097;DHT22;18610;49.916;8.284;2024-03-23T04:18:10;9.60;99.90
32097;DHT22;18610;49.916;8.284;2024-03-23T04:20:36;9.60;99.90
32097;DHT22;18610;49.916;8.284;2024-03-23T04:23:04;9.50;99.90
32097;DHT22;18610;49.916;8.284;2024-03-23T04:25:30;9.40;99.90
32097;DHT22;18610;49.916;8.284;2024-03-23T04:27:57;9.40;99.90
32097;DHT22;18610;49.916;8.284;2024-03-23T04:30:23;9.30;99.90
32097;DHT22;18610;49.916;8.284;2024-03-23T04:32:50;9.30;99.90
32097;DHT22;18610;49.916;8.284;2024-03-23T04:35:17;9.20;99.90
32097;DHT22;18610;49.916;8.284;2024-03-23T04:37:43;9.20;99.90
32097;DHT22;18610;49.916;8.284;2024-03-23T04:40:11;9.10;99.90
32097;DHT22;18610;49.916;8.284;2024-03-23T04:42:38;9.10;99.90
32097;DHT22;18610;49.916;8.284;2024-03-23T04:45:05;9.00;99.90
32097;DHT22;18610;49.916;8.284;2024-03-23T04:47:32;9.00;99.90
32097;DHT22;18610;49.916;8.284;2024-03-23T04:50:01;8.90;99.90
32097;DHT22;18610;49.916;8.284;2024-03-23T04:52:28;8.90;99.90
32097;DHT22;18610;49.916;8.284;2024-03-23T04:54:55;8.90;99.90
32097;DHT22;18610;49.916;8.284;2024-03-23T04:57:23;8.80;99.90
32097;DHT22;18610;49.916;8.284;2024-03-23T04:59:49;8.70;99.90
32097;DHT22;18610;49.916;8.284;2024-03-23T05:02:15;8.70;99.90
32097;DHT22;18610;49.916;8.284;2024-03-23T05:04:42;8.70;99.90
32097;DHT22;18610;49.916;8.284;2024-03-23T05:07:07;8.70;99.90
32097;DHT22;18610;49.916;8.284;2024-03-23T05:09:34;8.60;99.90
32097;DHT22;18610;49.916;8.284;2024-03-23T05:12:00;8.60;99.90
32097;DHT22;18610;49.916;8.284;2024-03-23T05:14:28;8.60;99.90
32097;DHT22;18610;49.916;8.284;2024-03-23T05:16:54;8.60;99.90
32097;DHT22;18610;49.916;8.284;2024-03-23T05:19:21;8.50;99.90
32097;DHT22;18610;49.916;8.284;2024-03-23T05:21:46;8.50;99.90
32097;DHT22;18610;49.916;8.284;2024-03-23T05:24:13;8.50;99.90
32097;DHT22;18610;49.916;8.284;2024-03-23T05:26:39;8.40;99.90
32097;DHT22;18610;49.916;8.284;2024-03-23T05:29:05;8.40;99.90
32097;DHT22;18610;49.916;8.284;2024-03-23T05:31:37;8.40;99.90
32097;DHT22;18610;49.916;8.284;2024-03-23T05:34:04;8.30;99.90
32097;DHT22;18610;49.916;8.284;2024-03-23T05:36:29;8.20;99.90
32097;DHT22;18610;49.916;8.284;2024-03-23T05:38:57;8.20;99.90
32097;DHT22;18610;49.916;8.284;2024-03-23T05:41:23;8.20;99.90
32097;DHT22;18610;49.916;8.284;2024-03-23T05:43:50;8.10;99.90
32097;DHT22;18610;49.916;8.284;2024-03-23T05:46:16;8.10;99.90
32097;DHT22;18610;49.916;8.284;2024-03-23T05:48:44;8.10;99.90
32097;DHT22;18610;49.916;8.284;2024-03-23T05:51:10;8.10;99.90
32097;DHT22;18610;49.916;8.284;2024-03-23T05:53:38;8.00;99.90
32097;DHT22;18610;49.916;8.284;2024-03-23T05:56:04;8.00;99.90
32097;DHT22;18610;49.916;8.284;2024-03-23T05:58:31;8.00;99.90
32097;DHT22;18610;49.916;8.284;2024-03-23T06:00:58;8.00;99.90
32097;DHT22;18610;49.916;8.284;2024-03-23T06:03:24;8.00;99.90
32097;DHT22;18610;49.916;8.284;2024-03-23T06:05:53;7.90;99.90
32097;DHT22;18610;49.916;8.284;2024-03-23T06:08:18;8.00;99.90
32097;DHT22;18610;49.916;8.284;2024-03-23T06:10:45;7.90;99.90
32097;DHT22;18610;49.916;8.284;2024-03-23T06:13:11;7.90;99.90
32097;DHT22;18610;49.916;8.284;2024-03-23T06:15:38;7.80;99.90
32097;DHT22;18610;49.916;8.284;2024-03-23T06:18:04;7.90;99.90
32097;DHT22;18610;49.916;8.284;2024-03-23T06:20:33;7.90;99.90
32097;DHT22;18610;49.916;8.284;2024-03-23T06:23:00;7.90;99.90
32097;DHT22;18610;49.916;8.284;2024-03-23T06:25:27;7.90;99.90
32097;DHT22;18610;49.916;8.284;2024-03-23T06:27:52;7.80;99.90
32097;DHT22;18610;49.916;8.284;2024-03-23T06:30:19;7.80;99.90
32097;DHT22;18610;49.916;8.284;2024-03-23T06:32:45;7.70;99.90
32097;DHT22;18610;49.916;8.284;2024-03-23T06:35:11;7.70;99.90
32097;DHT22;18610;49.916;8.284;2024-03-23T06:37:37;7.60;99.90
32097;DHT22;18610;49.916;8.284;2024-03-23T06:40:07;7.60;99.90
32097;DHT22;18610;49.916;8.284;2024-03-23T06:42:35;7.60;99.90
32097;DHT22;18610;49.916;8.284;2024-03-23T06:45:01;7.60;99.90
32097;DHT22;18610;49.916;8.284;2024-03-23T06:47:27;7.60;99.90
32097;DHT22;18610;49.916;8.284;2024-03-23T06:49:54;7.50;99.90
32097;DHT22;18610;49.916;8.284;2024-03-23T06:52:20;7.50;99.90
32097;DHT22;18610;49.916;8.284;2024-03-23T06:54:46;7.50;99.90
32097;DHT22;18610;49.916;8.284;2024-03-23T06:57:13;7.50;99.90
32097;DHT22;18610;49.916;8.284;2024-03-23T06:59:40;7.60;99.90
32097;DHT22;18610;49.916;8.284;2024-03-23T07:02:06;7.50;99.90
32097;DHT22;18610;49.916;8.284;2024-03-23T07:04:33;7.50;99.90
32097;DHT22;18610;49.916;8.284;2024-03-23T07:06:59;7.40;99.90
32097;DHT22;18610;49.916;8.284;2024-03-23T07:09:27;7.40;99.90
32097;DHT22;18610;49.916;8.284;2024-03-23T07:11:53;7.50;99.90
32097;DHT22;18610;49.916;8.284;2024-03-23T07:14:22;7.60;99.90
32097;DHT22;18610;49.916;8.284;2024-03-23T07:16:48;7.70;99.90
32097;DHT22;18610;49.916;8.284;2024-03-23T07:19:15;7.80;99.90
32097;DHT22;18610;49.916;8.284;2024-03-23T07:21:41;7.90;99.90
32097;DHT22;18610;49.916;8.284;2024-03-23T07:24:09;7.90;99.90
32097;DHT22;18610;49.916;8.284;2024-03-23T07:26:34;8.00;99.90
32097;DHT22;18610;49.916;8.284;2024-03-23T07:29:01;8.00;99.90
32097;DHT22;18610;49.916;8.284;2024-03-23T07:31:28;8.10;99.90
32097;DHT22;18610;49.916;8.284;2024-03-23T07:33:55;8.10;99.90
32097;DHT22;18610;49.916;8.284;2024-03-23T07:36:21;8.10;99.90
32097;DHT22;18610;49.916;8.284;2024-03-23T07:38:47;8.10;99.90
32097;DHT22;18610;49.916;8.284;2024-03-23T07:41:15;8.10;99.90
32097;DHT22;18610;49.916;8.284;2024-03-23T07:43:43;8.10;99.90
32097;DHT22;18610;49.916;8.284;2024-03-23T07:46:09;8.20;99.90
32097;DHT22;18610;49.916;8.284;2024-03-23T07:48:37;8.20;99.90
32097;DHT22;18610;49.916;8.284;2024-03-23T07:51:04;8.30;99.90
32097;DHT22;18610;49.916;8.284;2024-03-23T07:53:32;8.30;99.90
32097;DHT22;18610;49.916;8.284;2024-03-23T07:55:58;8.40;99.90
32097;DHT22;18610;49.916;8.284;2024-03-23T07:58:26;8.60;99.90
32097;DHT22;18610;49.916;8.284;2024-03-23T08:00:52;8.60;99.90
32097;DHT22;18610;49.916;8.284;2024-03-23T08:03:19;8.60;99.90
32097;DHT22;18610;49.916;8.284;2024-03-23T08:05:46;8.60;99.90
32097;DHT22;18610;49.916;8.284;2024-03-23T08:08:13;8.70;99.90
32097;DHT22;18610;49.916;8.284;2024-03-23T08:10:48;8.80;99.90
32097;DHT22;18610;49.916;8.284;2024-03-23T08:13:15;9.00;99.90
32097;DHT22;18610;49.916;8.284;2024-03-23T08:15:40;9.20;99.90
32097;DHT22;18610;49.916;8.284;2024-03-23T08:18:07;9.30;99.90
32097;DHT22;18610;49.916;8.284;2024-03-23T08:20:33;9.40;99.90
32097;DHT22;18610;49.916;8.284;2024-03-23T08:23:01;9.50;99.90
32097;DHT22;18610;49.916;8.284;2024-03-23T08:25:30;9.70;99.90
32097;DHT22;18610;49.916;8.284;2024-03-23T08:27:57;9.90;99.90
32097;DHT22;18610;49.916;8.284;2024-03-23T08:30:23;10.00;99.90
32097;DHT22;18610;49.916;8.284;2024-03-23T08:32:50;10.20;99.90
32097;DHT22;18610;49.916;8.284;2024-03-23T08:35:15;10.10;99.90
32097;DHT22;18610;49.916;8.284;2024-03-23T08:37:42;10.20;99.90
32097;DHT22;18610;49.916;8.284;2024-03-23T08:40:10;10.40;99.90
32097;DHT22;18610;49.916;8.284;2024-03-23T08:42:37;10.50;99.90
32097;DHT22;18610;49.916;8.284;2024-03-23T08:45:03;10.60;99.90
32097;DHT22;18610;49.916;8.284;2024-03-23T08:47:34;10.60;99.90
32097;DHT22;18610;49.916;8.284;2024-03-23T08:50:00;10.80;99.90
32097;DHT22;18610;49.916;8.284;2024-03-23T08:52:26;11.00;99.90
32097;DHT22;18610;49.916;8.284;2024-03-23T08:54:54;11.10;99.90
32097;DHT22;18610;49.916;8.284;2024-03-23T08:57:22;11.30;99.90
32097;DHT22;18610;49.916;8.284;2024-03-23T08:59:48;11.40;99.90
32097;DHT22;18610;49.916;8.284;2024-03-23T09:02:15;11.60;99.90
32097;DHT22;18610;49.916;8.284;2024-03-23T09:04:40;11.80;99.90
32097;DHT22;18610;49.916;8.284;2024-03-23T09:07:07;12.00;99.90
32097;DHT22;18610;49.916;8.284;2024-03-23T09:09:33;12.20;99.90
32097;DHT22;18610;49.916;8.284;2024-03-23T09:12:00;12.20;99.90
32097;DHT22;18610;49.916;8.284;2024-03-23T09:14:27;12.20;99.70
32097;DHT22;18610;49.916;8.284;2024-03-23T09:16:55;12.30;99.90
32097;DHT22;18610;49.916;8.284;2024-03-23T09:19:20;12.40;99.20
32097;DHT22;18610;49.916;8.284;2024-03-23T09:21:47;12.50;98.40
32097;DHT22;18610;49.916;8.284;2024-03-23T09:24:14;12.60;97.50
32097;DHT22;18610;49.916;8.284;2024-03-23T09:26:41;12.70;95.80
32097;DHT22;18610;49.916;8.284;2024-03-23T09:29:06;12.80;96.40
32097;DHT22;18610;49.916;8.284;2024-03-23T09:31:34;12.80;96.40
32097;DHT22;18610;49.916;8.284;2024-03-23T09:34:00;12.90;95.10
32097;DHT22;18610;49.916;8.284;2024-03-23T09:36:27;12.90;94.30
32097;DHT22;18610;49.916;8.284;2024-03-23T09:38:53;12.90;95.50
32097;DHT22;18610;49.916;8.284;2024-03-23T09:41:19;13.00;94.90
32097;DHT22;18610;49.916;8.284;2024-03-23T09:43:45;13.00;94.80
32097;DHT22;18610;49.916;8.284;2024-03-23T09:46:14;13.20;93.60
32097;DHT22;18610;49.916;8.284;2024-03-23T09:48:41;13.20;94.30
32097;DHT22;18610;49.916;8.284;2024-03-23T09:51:10;13.30;93.80
32097;DHT22;18610;49.916;8.284;2024-03-23T09:53:36;13.30;93.40
32097;DHT22;18610;49.916;8.284;2024-03-23T09:56:03;13.30;92.60
32097;DHT22;18610;49.916;8.284;2024-03-23T09:58:30;13.30;90.80
32097;DHT22;18610;49.916;8.284;2024-03-23T10:00:57;13.40;91.10
32097;DHT22;18610;49.916;8.284;2024-03-23T10:03:23;13.50;89.80
32097;DHT22;18610;49.916;8.284;2024-03-23T10:06:01;13.40;89.70
32097;DHT22;18610;49.916;8.284;2024-03-23T10:08:29;13.20;90.40
32097;DHT22;18610;49.916;8.284;2024-03-23T10:10:55;13.00;89.40
32097;DHT22;18610;49.916;8.284;2024-03-23T10:13:25;12.90;88.60
32097;DHT22;18610;49.916;8.284;2024-03-23T10:15:56;13.00;87.70
32097;DHT22;18610;49.916;8.284;2024-03-23T10:18:22;13.00;85.00
32097;DHT22;18610;49.916;8.284;2024-03-23T10:20:51;13.00;84.60
32097;DHT22;18610;49.916;8.284;2024-03-23T10:23:19;13.00;84.80
32097;DHT22;18610;49.916;8.284;2024-03-23T10:25:46;12.90;85.40
32097;DHT22;18610;49.916;8.284;2024-03-23T10:28:12;12.60;85.60
32097;DHT22;18610;49.916;8.284;2024-03-23T10:30:38;12.20;90.50
32097;DHT22;18610;49.916;8.284;2024-03-23T10:33:08;11.90;92.50
32097;DHT22;18610;49.916;8.284;2024-03-23T10:35:36;11.40;93.20
32097;DHT22;18610;49.916;8.284;2024-03-23T10:38:04;11.00;94.80
32097;DHT22;18610;49.916;8.284;2024-03-23T10:40:34;10.60;96.60
32097;DHT22;18610;49.916;8.284;2024-03-23T10:43:03;10.20;98.90
32097;DHT22;18610;49.916;8.284;2024-03-23T10:45:29;9.70;99.80
32097;DHT22;18610;49.916;8.284;2024-03-23T10:47:56;9.30;99.90
32097;DHT22;18610;49.916;8.284;2024-03-23T10:50:22;9.00;99.90
32097;DHT22;18610;49.916;8.284;2024-03-23T10:52:49;8.70;99.90
32097;DHT22;18610;49.916;8.284;2024-03-23T10:55:17;8.50;99.90
32097;DHT22;18610;49.916;8.284;2024-03-23T10:57:49;8.30;99.90
32097;DHT22;18610;49.916;8.284;2024-03-23T11:00:16;8.00;99.90
32097;DHT22;18610;49.916;8.284;2024-03-23T11:02:43;7.70;99.90
32097;DHT22;18610;49.916;8.284;2024-03-23T11:05:28;7.60;99.90
32097;DHT22;18610;49.916;8.284;2024-03-23T11:07:55;7.50;99.90
32097;DHT22;18610;49.916;8.284;2024-03-23T11:10:28;7.50;99.90
32097;DHT22;18610;49.916;8.284;2024-03-23T11:12:57;7.30;99.90
32097;DHT22;18610;49.916;8.284;2024-03-23T11:15:23;7.20;99.90
32097;DHT22;18610;49.916;8.284;2024-03-23T11:18:03;7.20;99.90
32097;DHT22;18610;49.916;8.284;2024-03-23T11:20:31;7.20;99.90
32097;DHT22;18610;49.916;8.284;2024-03-23T11:22:59;7.30;99.90
32097;DHT22;18610;49.916;8.284;2024-03-23T11:25:26;7.50;99.90
32097;DHT22;18610;49.916;8.284;2024-03-23T11:27:54;7.60;99.90
32097;DHT22;18610;49.916;8.284;2024-03-23T11:30:23;7.90;99.90
32097;DHT22;18610;49.916;8.284;2024-03-23T11:32:51;8.30;99.90
32097;DHT22;18610;49.916;8.284;2024-03-23T11:35:27;8.70;99.90
32097;DHT22;18610;49.916;8.284;2024-03-23T11:38:04;9.10;99.90
32097;DHT22;18610;49.916;8.284;2024-03-23T11:40:31;9.60;99.90
32097;DHT22;18610;49.916;8.284;2024-03-23T11:42:59;10.00;99.90
32097;DHT22;18610;49.916;8.284;2024-03-23T11:45:26;10.50;99.90
32097;DHT22;18610;49.916;8.284;2024-03-23T11:48:02;11.10;99.90
32097;DHT22;18610;49.916;8.284;2024-03-23T11:50:28;11.60;99.90
32097;DHT22;18610;49.916;8.284;2024-03-23T11:53:07;12.00;99.90
32097;DHT22;18610;49.916;8.284;2024-03-23T11:55:39;12.50;99.90
32097;DHT22;18610;49.916;8.284;2024-03-23T11:58:06;12.80;99.90
32097;DHT22;18610;49.916;8.284;2024-03-23T12:00:34;13.00;99.50
32097;DHT22;18610;49.916;8.284;2024-03-23T12:03:01;13.20;98.90
32097;DHT22;18610;49.916;8.284;2024-03-23T12:05:27;13.40;97.60
32097;DHT22;18610;49.916;8.284;2024-03-23T12:07:54;13.80;96.50
32097;DHT22;18610;49.916;8.284;2024-03-23T12:10:20;14.20;94.30
32097;DHT22;18610;49.916;8.284;2024-03-23T12:12:59;14.50;93.00
32097;DHT22;18610;49.916;8.284;2024-03-23T12:15:25;14.50;90.90
32097;DHT22;18610;49.916;8.284;2024-03-23T12:18:06;14.50;89.50
32097;DHT22;18610;49.916;8.284;2024-03-23T12:20:31;14.60;90.10
32097;DHT22;18610;49.916;8.284;2024-03-23T12:23:05;14.60;89.10
32097;DHT22;18610;49.916;8.284;2024-03-23T12:25:31;14.80;91.60
32097;DHT22;18610;49.916;8.284;2024-03-23T12:27:59;15.00;91.00
32097;DHT22;18610;49.916;8.284;2024-03-23T12:30:24;15.00;90.50
32097;DHT22;18610;49.916;8.284;2024-03-23T12:32:52;14.80;90.30
32097;DHT22;18610;49.916;8.284;2024-03-23T12:35:18;14.60;89.10
32097;DHT22;18610;49.916;8.284;2024-03-23T12:37:45;14.50;91.20
32097;DHT22;18610;49.916;8.284;2024-03-23T12:40:11;14.40;90.60
32097;DHT22;18610;49.916;8.284;2024-03-23T12:42:38;14.20;87.80
32097;DHT22;18610;49.916;8.284;2024-03-23T12:45:04;13.90;89.00
32097;DHT22;18610;49.916;8.284;2024-03-23T12:47:31;13.50;88.50
32097;DHT22;18610;49.916;8.284;2024-03-23T12:49:58;13.00;90.80
32097;DHT22;18610;49.916;8.284;2024-03-23T12:52:25;12.70;92.20
32097;DHT22;18610;49.916;8.284;2024-03-23T12:54:54;12.30;94.70
32097;DHT22;18610;49.916;8.284;2024-03-23T12:57:22;11.70;98.30
32097;DHT22;18610;49.916;8.284;2024-03-23T12:59:47;11.20;99.90
32097;DHT22;18610;49.916;8.284;2024-03-23T13:02:17;10.70;99.90
32097;DHT22;18610;49.916;8.284;2024-03-23T13:04:43;10.30;99.90
32097;DHT22;18610;49.916;8.284;2024-03-23T13:07:11;10.00;99.90
32097;DHT22;18610;49.916;8.284;2024-03-23T13:09:36;9.90;99.90
32097;DHT22;18610;49.916;8.284;2024-03-23T13:12:03;9.80;99.90
32097;DHT22;18610;49.916;8.284;2024-03-23T13:14:29;10.10;99.90
32097;DHT22;18610;49.916;8.284;2024-03-23T13:16:55;10.60;99.90
32097;DHT22;18610;49.916;8.284;2024-03-23T13:19:21;11.10;99.90
32097;DHT22;18610;49.916;8.284;2024-03-23T13:21:52;11.60;99.90
32097;DHT22;18610;49.916;8.284;2024-03-23T13:24:21;12.00;99.90
32097;DHT22;18610;49.916;8.284;2024-03-23T13:26:49;12.40;99.90
32097;DHT22;18610;49.916;8.284;2024-03-23T13:29:15;12.70;99.90
32097;DHT22;18610;49.916;8.284;2024-03-23T13:31:42;12.90;98.80
32097;DHT22;18610;49.916;8.284;2024-03-23T13:34:07;13.00;98.70
32097;DHT22;18610;49.916;8.284;2024-03-23T13:36:34;13.00;97.90
32097;DHT22;18610;49.916;8.284;2024-03-23T13:39:01;13.10;98.10
32097;DHT22;18610;49.916;8.284;2024-03-23T13:41:32;13.00;96.60
32097;DHT22;18610;49.916;8.284;2024-03-23T13:43:57;13.10;97.00
32097;DHT22;18610;49.916;8.284;2024-03-23T13:46:24;13.20;96.60
32097;DHT22;18610;49.916;8.284;2024-03-23T13:48:50;13.20;95.90
32097;DHT22;18610;49.916;8.284;2024-03-23T13:51:23;13.20;95.40
32097;DHT22;18610;49.916;8.284;2024-03-23T13:53:50;13.10;95.90
32097;DHT22;18610;49.916;8.284;2024-03-23T13:56:16;13.00;96.30
32097;DHT22;18610;49.916;8.284;2024-03-23T13:58:44;13.20;95.30
32097;DHT22;18610;49.916;8.284;2024-03-23T14:01:13;12.90;95.30
32097;DHT22;18610;49.916;8.284;2024-03-23T14:03:39;12.80;96.40
32097;DHT22;18610;49.916;8.284;2024-03-23T14:06:06;13.00;96.90
32097;DHT22;18610;49.916;8.284;2024-03-23T14:08:33;13.30;95.70
32097;DHT22;18610;49.916;8.284;2024-03-23T14:11:02;13.60;93.70
32097;DHT22;18610;49.916;8.284;2024-03-23T14:13:29;13.60;89.80
32097;DHT22;18610;49.916;8.284;2024-03-23T14:15:57;13.40;88.50
32097;DHT22;18610;49.916;8.284;2024-03-23T14:18:23;13.40;90.20
32097;DHT22;18610;49.916;8.284;2024-03-23T14:20:52;13.40;89.70
32097;DHT22;18610;49.916;8.284;2024-03-23T14:23:17;12.90;88.70
32097;DHT22;18610;49.916;8.284;2024-03-23T14:25:44;12.20;89.40
32097;DHT22;18610;49.916;8.284;2024-03-23T14:28:10;12.20;91.30
32097;DHT22;18610;49.916;8.284;2024-03-23T14:30:41;12.40;90.90
32097;DHT22;18610;49.916;8.284;2024-03-23T14:33:08;12.50;89.50
32097;DHT22;18610;49.916;8.284;2024-03-23T14:35:35;12.50;90.20
32097;DHT22;18610;49.916;8.284;2024-03-23T14:38:01;12.50;90.60
32097;DHT22;18610;49.916;8.284;2024-03-23T14:40:28;12.50;90.10
32097;DHT22;18610;49.916;8.284;2024-03-23T14:42:53;12.30;90.30
32097;DHT22;18610;49.916;8.284;2024-03-23T14:45:20;12.30;90.00
32097;DHT22;18610;49.916;8.284;2024-03-23T14:47:46;12.50;90.20
32097;DHT22;18610;49.916;8.284;2024-03-23T14:50:14;12.70;90.20
32097;DHT22;18610;49.916;8.284;2024-03-23T14:52:43;13.00;90.20
32097;DHT22;18610;49.916;8.284;2024-03-23T14:55:10;13.40;89.00
32097;DHT22;18610;49.916;8.284;2024-03-23T14:57:36;13.80;86.60
32097;DHT22;18610;49.916;8.284;2024-03-23T15:00:06;14.00;81.40
32097;DHT22;18610;49.916;8.284;2024-03-23T15:02:33;14.20;83.20
32097;DHT22;18610;49.916;8.284;2024-03-23T15:05:00;14.00;81.50
32097;DHT22;18610;49.916;8.284;2024-03-23T15:07:27;13.40;83.20
32097;DHT22;18610;49.916;8.284;2024-03-23T15:09:54;12.90;85.20
32097;DHT22;18610;49.916;8.284;2024-03-23T15:12:19;12.20;89.30
32097;DHT22;18610;49.916;8.284;2024-03-23T15:14:47;11.60;90.70
32097;DHT22;18610;49.916;8.284;2024-03-23T15:17:13;11.10;92.30
32097;DHT22;18610;49.916;8.284;2024-03-23T15:19:39;10.60;93.70
32097;DHT22;18610;49.916;8.284;2024-03-23T15:22:07;10.40;95.50
32097;DHT22;18610;49.916;8.284;2024-03-23T15:24:35;10.00;96.70
32097;DHT22;18610;49.916;8.284;2024-03-23T15:27:01;9.80;98.60
32097;DHT22;18610;49.916;8.284;2024-03-23T15:29:28;9.60;99.70
32097;DHT22;18610;49.916;8.284;2024-03-23T15:31:54;9.30;99.90
32097;DHT22;18610;49.916;8.284;2024-03-23T15:34:21;9.10;99.90
32097;DHT22;18610;49.916;8.284;2024-03-23T15:36:47;8.90;99.90
32097;DHT22;18610;49.916;8.284;2024-03-23T15:39:14;8.70;99.90
32097;DHT22;18610;49.916;8.284;2024-03-23T15:41:44;8.70;99.90
32097;DHT22;18610;49.916;8.284;2024-03-23T15:44:10;8.80;99.90
32097;DHT22;18610;49.916;8.284;2024-03-23T15:46:36;9.10;99.90
32097;DHT22;18610;49.916;8.284;2024-03-23T15:49:03;9.60;99.90
32097;DHT22;18610;49.916;8.284;2024-03-23T15:51:29;10.00;99.90
32097;DHT22;18610;49.916;8.284;2024-03-23T15:53:58;10.30;99.60
32097;DHT22;18610;49.916;8.284;2024-03-23T15:56:24;10.30;97.90
32097;DHT22;18610;49.916;8.284;2024-03-23T15:58:53;10.20;97.10
32097;DHT22;18610;49.916;8.284;2024-03-23T16:01:18;10.10;96.80
32097;DHT22;18610;49.916;8.284;2024-03-23T16:03:46;10.00;96.30
32097;DHT22;18610;49.916;8.284;2024-03-23T16:06:11;9.90;96.70
32097;DHT22;18610;49.916;8.284;2024-03-23T16:08:38;9.80;97.30
32097;DHT22;18610;49.916;8.284;2024-03-23T16:11:05;9.60;97.80
32097;DHT22;18610;49.916;8.284;2024-03-23T16:13:32;9.50;98.20
32097;DHT22;18610;49.916;8.284;2024-03-23T16:16:01;9.40;98.50
32097;DHT22;18610;49.916;8.284;2024-03-23T16:18:29;9.40;98.80
32097;DHT22;18610;49.916;8.284;2024-03-23T16:20:55;9.40;98.40
32097;DHT22;18610;49.916;8.284;2024-03-23T16:23:22;9.30;98.30
32097;DHT22;18610;49.916;8.284;2024-03-23T16:25:48;9.20;98.40
32097;DHT22;18610;49.916;8.284;2024-03-23T16:28:23;9.20;98.40
32097;DHT22;18610;49.916;8.284;2024-03-23T16:30:54;9.30;98.20